createdAt,value
2023-03-28T00:02:11.806Z,-2.93
2023-03-28T00:05:17.881Z,-3.00
2023-03-28T00:08:25.009Z,-3.03
2023-03-28T00:11:30.822Z,-3.03
2023-03-28T00:14:40.391Z,-3.07
2023-03-28T00:17:47.136Z,-3.01
2023-03-28T00:20:54.002Z,-3.01
2023-03-28T00:24:02.846Z,-3.04
2023-03-28T00:27:11.276Z,-3.00
2023-03-28T00:30:20.151Z,-3.04
2023-03-28T00:33:29.136Z,-3.13
2023-03-28T00:36:35.380Z,-3.11
2023-03-28T00:39:43.726Z,-3.23
2023-03-28T00:42:49.648Z,-3.27
2023-03-28T00:46:08.755Z,-3.42
2023-03-28T00:49:25.288Z,-3.51
2023-03-28T00:52:41.896Z,-3.51
2023-03-28T00:55:54.473Z,-3.53
2023-03-28T00:59:11.380Z,-3.50
2023-03-28T01:02:20.393Z,-3.54
2023-03-28T01:05:32.274Z,-3.62
2023-03-28T01:08:44.994Z,-3.67
2023-03-28T01:11:53.570Z,-3.87
2023-03-28T01:14:59.631Z,-3.95
2023-03-28T01:18:23.035Z,-3.87
2023-03-28T01:22:22.465Z,-3.84
2023-03-28T01:26:25.832Z,-3.75
2023-03-28T01:30:30.321Z,-3.81
2023-03-28T01:35:07.192Z,-3.84
2023-03-28T01:38:29.855Z,-3.74
2023-03-28T01:41:57.182Z,-3.68
2023-03-28T01:45:20.845Z,-3.70
2023-03-28T01:48:47.913Z,-3.62
2023-03-28T01:52:08.402Z,-3.52
2023-03-28T01:55:30.674Z,-3.66
2023-03-28T01:58:50.301Z,-3.41
2023-03-28T02:02:13.012Z,-3.30
2023-03-28T02:05:22.612Z,-3.27
2023-03-28T02:08:38.659Z,-3.34
2023-03-28T02:12:15.353Z,-3.30
2023-03-28T02:15:45.795Z,-3.30
2023-03-28T02:19:05.451Z,-3.38
2023-03-28T02:22:48.227Z,-3.25
2023-03-28T02:26:14.965Z,-3.14
2023-03-28T02:29:43.072Z,-3.16
2023-03-28T02:32:57.690Z,-3.03
2023-03-28T02:36:28.283Z,-3.01
2023-03-28T02:39:52.361Z,-2.99
2023-03-28T02:43:52.771Z,-2.98
2023-03-28T02:47:20.276Z,-2.97
2023-03-28T02:50:38.964Z,-3.09
2023-03-28T02:54:05.711Z,-3.03
2023-03-28T02:57:26.245Z,-3.12
2023-03-28T03:00:33.954Z,-3.15
2023-03-28T03:03:46.175Z,-3.22
2023-03-28T03:06:52.200Z,-3.13
2023-03-28T03:09:59.146Z,-3.15
2023-03-28T03:13:04.955Z,-3.09
2023-03-28T03:16:12.123Z,-3.09
2023-03-28T03:19:22.071Z,-3.00
2023-03-28T03:22:29.049Z,-2.95
2023-03-28T03:25:35.545Z,-2.90
2023-03-28T03:29:38.729Z,-2.91
2023-03-28T03:32:47.410Z,-2.91
2023-03-28T03:35:57.038Z,-2.93
2023-03-28T03:39:03.976Z,-2.89
2023-03-28T03:42:10.964Z,-2.86
2023-03-28T03:45:17.017Z,-2.84
2023-03-28T03:48:23.773Z,-2.89
2023-03-28T03:51:39.780Z,-2.90
2023-03-28T03:54:47.025Z,-2.87
2023-03-28T03:57:53.058Z,-2.92
2023-03-28T04:01:02.582Z,-2.85
2023-03-28T04:04:15.922Z,-2.85
2023-03-28T04:08:05.293Z,-2.82
2023-03-28T04:11:16.873Z,-2.89
2023-03-28T04:14:24.409Z,-3.03
2023-03-28T04:17:41.858Z,-3.26
2023-03-28T04:21:03.443Z,-3.13
2023-03-28T04:24:46.196Z,-2.96
2023-03-28T04:28:13.599Z,-2.80
2023-03-28T04:31:36.218Z,-2.73
2023-03-28T04:35:35.779Z,-2.63
2023-03-28T04:38:42.025Z,-2.64
2023-03-28T04:42:06.367Z,-2.55
2023-03-28T04:45:31.184Z,-2.84
2023-03-28T04:48:43.807Z,-3.04
2023-03-28T04:51:50.902Z,-3.13
2023-03-28T04:54:57.505Z,-3.09
2023-03-28T04:58:06.343Z,-3.08
2023-03-28T05:01:15.223Z,-3.12
2023-03-28T05:05:08.615Z,-3.04
2023-03-28T05:08:16.506Z,-3.08
2023-03-28T05:11:22.225Z,-3.06
2023-03-28T05:14:31.536Z,-3.16
2023-03-28T05:17:49.900Z,-3.04
2023-03-28T05:21:07.829Z,-2.98
2023-03-28T05:24:13.617Z,-2.97
2023-03-28T05:27:20.584Z,-2.87
2023-03-28T05:30:30.181Z,-2.72
2023-03-28T05:33:39.051Z,-2.66
2023-03-28T05:36:44.753Z,-2.57
2023-03-28T05:40:01.272Z,-2.73
2023-03-28T05:43:07.103Z,-2.67
2023-03-28T05:46:18.258Z,-2.66
2023-03-28T05:49:24.074Z,-2.54
2023-03-28T05:52:32.025Z,-2.41
2023-03-28T05:55:38.401Z,-2.19
2023-03-28T05:58:45.286Z,-2.10
2023-03-28T06:01:53.875Z,-2.06
2023-03-28T06:05:01.709Z,-2.21
2023-03-28T06:08:09.702Z,-2.40
2023-03-28T06:11:17.601Z,-2.47
2023-03-28T06:14:57.423Z,-2.63
2023-03-28T06:18:11.776Z,-2.69
2023-03-28T06:21:23.051Z,-2.79
2023-03-28T06:24:29.542Z,-2.99
2023-03-28T06:27:38.064Z,-3.06
2023-03-28T06:30:45.164Z,-3.30
2023-03-28T06:33:54.347Z,-3.62
2023-03-28T06:37:02.469Z,-3.65
2023-03-28T06:40:22.342Z,-3.59
2023-03-28T06:43:29.002Z,-3.53
2023-03-28T06:46:45.039Z,-3.57
2023-03-28T06:49:55.541Z,-3.46
2023-03-28T06:53:38.664Z,-3.30
2023-03-28T06:56:45.909Z,-3.04
2023-03-28T06:59:51.932Z,-2.84
2023-03-28T07:03:05.439Z,-2.83
2023-03-28T07:06:15.000Z,-2.37
2023-03-28T07:09:25.225Z,-2.33
2023-03-28T07:12:37.674Z,-2.10
2023-03-28T07:15:44.403Z,-1.93
2023-03-28T07:18:50.825Z,-2.01
2023-03-28T07:22:08.620Z,-1.94
2023-03-28T07:25:16.087Z,-2.10
2023-03-28T07:28:25.506Z,-2.07
2023-03-28T07:31:31.477Z,-2.03
2023-03-28T07:34:38.968Z,-2.14
2023-03-28T07:37:49.609Z,-2.18
2023-03-28T07:41:09.436Z,-2.14
2023-03-28T07:44:15.345Z,-2.14
2023-03-28T07:47:22.701Z,-2.13
2023-03-28T07:50:28.430Z,-2.37
2023-03-28T07:53:39.810Z,-2.43
2023-03-28T07:56:45.669Z,-2.43
2023-03-28T08:00:23.946Z,-2.56
2023-03-28T08:03:49.754Z,-2.54
2023-03-28T08:06:56.864Z,-2.68
2023-03-28T08:10:06.533Z,-2.29
2023-03-28T08:13:13.198Z,-2.11
2023-03-28T08:16:19.118Z,-2.23
2023-03-28T08:19:25.769Z,-2.24
2023-03-28T08:23:14.959Z,-2.07
2023-03-28T08:26:40.971Z,-2.32
2023-03-28T08:29:46.895Z,-2.05
2023-03-28T08:32:54.292Z,-2.02
2023-03-28T08:36:00.187Z,-1.85
2023-03-28T08:39:08.514Z,-1.96
2023-03-28T08:42:49.152Z,-2.12
2023-03-28T08:46:02.070Z,-2.17
2023-03-28T08:49:18.032Z,-2.39
2023-03-28T08:52:26.079Z,-2.45
2023-03-28T08:55:41.619Z,-2.74
2023-03-28T08:59:07.258Z,-2.52
2023-03-28T09:02:24.155Z,-2.68
2023-03-28T09:05:47.293Z,-2.48
2023-03-28T09:09:26.520Z,-2.53
2023-03-28T09:13:15.910Z,-2.55
2023-03-28T09:16:51.329Z,-2.58
2023-03-28T09:20:24.267Z,-2.40
2023-03-28T09:24:09.409Z,-2.85
2023-03-28T09:27:52.125Z,-2.05
2023-03-28T09:31:03.301Z,-2.11
2023-03-28T09:34:27.866Z,-1.99
2023-03-28T09:37:44.764Z,-1.89
2023-03-28T09:41:00.772Z,-1.85
2023-03-28T09:44:16.770Z,-1.77
2023-03-28T09:47:26.947Z,-1.86
2023-03-28T09:50:41.810Z,-1.98
2023-03-28T09:53:48.619Z,-2.02
2023-03-28T09:56:56.283Z,-1.90
2023-03-28T10:00:27.638Z,-1.91
2023-03-28T10:03:57.715Z,-1.65
2023-03-28T10:07:46.107Z,-1.43
2023-03-28T10:11:21.242Z,-1.22
2023-03-28T10:14:43.836Z,-1.43
2023-03-28T10:18:07.564Z,-1.41
2023-03-28T10:21:24.869Z,-1.33
2023-03-28T10:24:51.378Z,-1.44
2023-03-28T10:28:00.809Z,-1.62
2023-03-28T10:31:22.515Z,-1.49
2023-03-28T10:34:35.229Z,-1.46
2023-03-28T10:37:51.564Z,-1.76
2023-03-28T10:41:13.699Z,-2.00
2023-03-28T10:44:36.596Z,-1.89
2023-03-28T10:47:52.567Z,-1.89
2023-03-28T10:51:08.586Z,-1.89
2023-03-28T10:54:46.956Z,-1.84
2023-03-28T10:58:21.250Z,-1.69
2023-03-28T11:01:45.349Z,-1.48
2023-03-28T11:05:13.940Z,-1.23
2023-03-28T11:08:47.386Z,-0.97
2023-03-28T11:12:22.987Z,-1.15
2023-03-28T11:15:46.087Z,-1.23
2023-03-28T11:19:24.437Z,-1.03
2023-03-28T11:23:05.784Z,-0.73
2023-03-28T11:26:40.355Z,-1.17
2023-03-28T11:30:17.945Z,-1.47
2023-03-28T11:33:52.121Z,-1.67
2023-03-28T11:37:16.215Z,-1.77
2023-03-28T11:40:31.629Z,-1.86
2023-03-28T11:43:54.001Z,-1.39
2023-03-28T11:47:12.503Z,-1.24
2023-03-28T11:50:34.290Z,-1.19
2023-03-28T11:53:58.230Z,-1.20
2023-03-28T11:57:25.217Z,-1.35
2023-03-28T12:00:46.530Z,-1.49
2023-03-28T12:04:08.917Z,-1.61
2023-03-28T12:07:25.568Z,-1.66
2023-03-28T12:10:38.532Z,-1.71
2023-03-28T12:14:11.636Z,-1.94
2023-03-28T12:17:32.029Z,-1.68
2023-03-28T12:20:50.748Z,-1.68
2023-03-28T12:24:30.149Z,-1.59
2023-03-28T12:28:10.489Z,-1.81
2023-03-28T12:31:27.787Z,-1.77
2023-03-28T12:34:55.324Z,-1.86
2023-03-28T12:38:34.458Z,-1.96
2023-03-28T12:41:58.059Z,-2.20
2023-03-28T12:45:16.968Z,-2.35
2023-03-28T12:48:38.177Z,-2.22
2023-03-28T12:51:52.812Z,-2.65
2023-03-28T12:55:03.514Z,-2.84
2023-03-28T12:58:28.061Z,-3.05
2023-03-28T13:02:00.690Z,-3.14
2023-03-28T13:05:26.291Z,-3.14
2023-03-28T13:09:09.632Z,-3.16
2023-03-28T13:12:38.216Z,-3.51
2023-03-28T13:16:07.391Z,-3.14
2023-03-28T13:19:18.770Z,-2.94
2023-03-28T13:22:40.635Z,-2.69
2023-03-28T13:25:59.439Z,-2.55
2023-03-28T13:29:06.176Z,-2.44
2023-03-28T13:32:20.529Z,-2.32
2023-03-28T13:36:31.073Z,-2.24
2023-03-28T13:39:37.783Z,-2.24
2023-03-28T13:43:01.608Z,-2.12
2023-03-28T13:46:16.453Z,-1.94
2023-03-28T13:49:38.279Z,-1.92
2023-03-28T13:52:44.829Z,-1.71
2023-03-28T13:55:52.414Z,-1.52
2023-03-28T13:59:02.267Z,-1.51
2023-03-28T14:02:21.096Z,-1.55
2023-03-28T14:05:33.880Z,-1.55
2023-03-28T14:08:39.600Z,-1.65
2023-03-28T14:11:48.629Z,-1.66
2023-03-28T14:15:00.313Z,-1.65
2023-03-28T14:18:07.804Z,-1.94
2023-03-28T14:21:17.202Z,-1.69
2023-03-28T14:24:29.968Z,-2.21
2023-03-28T14:27:41.631Z,-1.92
2023-03-28T14:30:48.044Z,-1.80
2023-03-28T14:33:53.612Z,-1.76
2023-03-28T14:37:07.903Z,-1.81
2023-03-28T14:40:33.502Z,-1.73
2023-03-28T14:43:40.263Z,-1.73
2023-03-28T14:46:49.720Z,-1.72
2023-03-28T14:49:58.542Z,-1.78
2023-03-28T14:53:11.073Z,-1.77
2023-03-28T14:56:26.734Z,-1.72
2023-03-28T14:59:42.517Z,-1.80
2023-03-28T15:02:51.207Z,-1.81
2023-03-28T15:05:57.906Z,-1.87
2023-03-28T15:09:28.424Z,-2.05
2023-03-28T15:12:35.687Z,-1.94
2023-03-28T15:15:48.369Z,-2.19
2023-03-28T15:19:07.213Z,-2.18
2023-03-28T15:22:24.316Z,-2.38
2023-03-28T15:25:35.835Z,-2.21
2023-03-28T15:28:44.029Z,-2.18
2023-03-28T15:31:52.110Z,-2.45
2023-03-28T15:35:04.959Z,-2.60
2023-03-28T15:38:19.810Z,-2.50
2023-03-28T15:41:45.308Z,-2.69
2023-03-28T15:45:26.120Z,-2.61
2023-03-28T15:48:38.188Z,-2.40
2023-03-28T15:51:55.087Z,-2.31
2023-03-28T15:55:06.451Z,-2.40
2023-03-28T15:58:19.577Z,-2.38
2023-03-28T16:01:30.210Z,-2.95
2023-03-28T16:04:36.209Z,-2.78
2023-03-28T16:07:54.622Z,-2.88
2023-03-28T16:11:00.458Z,-2.94
2023-03-28T16:14:40.254Z,-2.80
2023-03-28T16:18:11.796Z,-2.71
2023-03-28T16:21:28.138Z,-2.71
2023-03-28T16:24:35.034Z,-2.66
2023-03-28T16:27:42.719Z,-2.70
2023-03-28T16:30:53.244Z,-2.46
2023-03-28T16:34:00.712Z,-2.61
2023-03-28T16:37:06.840Z,-2.51
2023-03-28T16:40:14.751Z,-2.53
2023-03-28T16:43:21.020Z,-2.39
2023-03-28T16:46:30.530Z,-2.30
2023-03-28T16:49:36.404Z,-2.26
2023-03-28T16:52:44.387Z,-2.45
2023-03-28T16:55:51.030Z,-2.36
2023-03-28T16:58:57.937Z,-2.31
2023-03-28T17:02:07.003Z,-2.47
2023-03-28T17:05:13.964Z,-2.46
2023-03-28T17:08:19.777Z,-2.62
2023-03-28T17:11:27.399Z,-2.69
2023-03-28T17:14:33.305Z,-2.74
2023-03-28T17:17:43.032Z,-2.79
2023-03-28T17:20:49.618Z,-2.85
2023-03-28T17:23:57.225Z,-2.82
2023-03-28T17:27:03.553Z,-2.70
2023-03-28T17:30:13.351Z,-2.76
2023-03-28T17:33:23.376Z,-2.75
2023-03-28T17:36:32.986Z,-2.77
2023-03-28T17:39:39.101Z,-2.67
2023-03-28T17:42:45.954Z,-2.82
2023-03-28T17:45:57.116Z,-2.70
2023-03-28T17:49:08.459Z,-2.70
2023-03-28T17:52:14.602Z,-2.74
2023-03-28T17:55:21.673Z,-2.66
2023-03-28T17:58:28.195Z,-2.63
2023-03-28T18:01:35.454Z,-2.60
2023-03-28T18:04:44.125Z,-2.55
2023-03-28T18:07:57.662Z,-2.50
2023-03-28T18:11:05.726Z,-2.53
2023-03-28T18:14:12.926Z,-2.43
2023-03-28T18:17:20.375Z,-2.43
2023-03-28T18:20:30.021Z,-2.43
2023-03-28T18:23:36.037Z,-2.49
2023-03-28T18:26:43.245Z,-2.55
2023-03-28T18:29:50.709Z,-2.60
2023-03-28T18:32:59.250Z,-2.66
2023-03-28T18:36:09.100Z,-2.68
2023-03-28T18:39:17.042Z,-2.64
2023-03-28T18:42:23.593Z,-2.65
2023-03-28T18:45:31.400Z,-2.68
2023-03-28T18:48:39.127Z,-2.73
2023-03-28T18:51:49.054Z,-2.83
2023-03-28T18:54:55.554Z,-2.77
2023-03-28T18:58:04.827Z,-2.82
2023-03-28T19:01:13.103Z,-2.87
2023-03-28T19:04:20.316Z,-2.93
2023-03-28T19:07:29.362Z,-2.84
2023-03-28T19:10:36.383Z,-2.90
2023-03-28T19:13:44.328Z,-3.26
2023-03-28T19:16:51.479Z,-3.04
2023-03-28T19:20:02.480Z,-3.03
2023-03-28T19:23:12.398Z,-3.02
2023-03-28T19:26:19.089Z,-2.98
2023-03-28T19:29:26.303Z,-3.11
2023-03-28T19:32:33.056Z,-3.04
2023-03-28T19:35:40.434Z,-3.06
2023-03-28T19:38:49.081Z,-3.06
2023-03-28T19:41:56.137Z,-3.12
2023-03-28T19:45:01.965Z,-3.06
2023-03-28T19:48:09.274Z,-3.08
2023-03-28T19:51:15.816Z,-3.11
2023-03-28T19:54:26.106Z,-3.07
2023-03-28T19:57:31.958Z,-3.10
2023-03-28T20:00:38.580Z,-3.18
2023-03-28T20:03:53.421Z,-3.17
2023-03-28T20:07:00.289Z,-3.41
2023-03-28T20:10:10.168Z,-3.27
2023-03-28T20:13:17.564Z,-3.28
2023-03-28T20:16:23.650Z,-3.28
2023-03-28T20:19:32.208Z,-3.31
2023-03-28T20:22:38.309Z,-3.27
2023-03-28T20:25:48.316Z,-3.31
2023-03-28T20:28:59.755Z,-3.39
2023-03-28T20:32:09.129Z,-3.30
2023-03-28T20:35:16.215Z,-3.35
2023-03-28T20:38:23.151Z,-3.50
2023-03-28T20:41:32.725Z,-3.49
2023-03-28T20:44:41.132Z,-3.51
2023-03-28T20:47:50.412Z,-3.69
2023-03-28T20:50:57.205Z,-3.70
2023-03-28T20:54:05.345Z,-3.65
2023-03-28T20:57:14.887Z,-3.63
2023-03-28T21:00:23.945Z,-3.72
2023-03-28T21:03:47.197Z,-3.66
2023-03-28T21:06:54.309Z,-3.72
2023-03-28T21:10:01.538Z,-3.72
2023-03-28T21:13:10.352Z,-3.69
2023-03-28T21:16:19.108Z,-3.75
2023-03-28T21:19:24.872Z,-3.74
2023-03-28T21:22:31.770Z,-3.75
2023-03-28T21:25:38.166Z,-3.69
2023-03-28T21:28:48.398Z,-3.59
2023-03-28T21:31:54.185Z,-3.67
2023-03-28T21:35:01.328Z,-3.82
2023-03-28T21:38:07.459Z,-3.73
2023-03-28T21:41:14.655Z,-3.77
2023-03-28T21:44:23.415Z,-3.63
2023-03-28T21:47:30.299Z,-3.69
2023-03-28T21:50:39.121Z,-3.67
2023-03-28T21:53:46.148Z,-3.65
2023-03-28T21:56:51.988Z,-3.62
2023-03-28T22:00:01.958Z,-3.69
2023-03-28T22:03:10.487Z,-3.72
2023-03-28T22:06:19.827Z,-3.75
2023-03-28T22:09:25.512Z,-3.73
2023-03-28T22:12:32.887Z,-3.66
2023-03-28T22:15:41.688Z,-3.75
2023-03-28T22:18:50.440Z,-3.71
2023-03-28T22:21:57.062Z,-3.77
2023-03-28T22:25:04.616Z,-3.91
2023-03-28T22:28:15.074Z,-3.91
2023-03-28T22:31:25.584Z,-3.98
2023-03-28T22:34:32.200Z,-4.02
2023-03-28T22:37:39.289Z,-4.03
2023-03-28T22:40:45.319Z,-4.10
2023-03-28T22:43:52.074Z,-4.17
2023-03-28T22:47:02.930Z,-4.15
2023-03-28T22:50:12.760Z,-4.16
2023-03-28T22:53:22.981Z,-4.17
2023-03-28T22:56:29.592Z,-4.15
2023-03-28T22:59:36.713Z,-4.24
2023-03-28T23:02:47.046Z,-4.30
2023-03-28T23:05:55.425Z,-4.29
2023-03-28T23:09:02.031Z,-4.18
2023-03-28T23:12:09.069Z,-4.22
2023-03-28T23:15:17.264Z,-4.19
2023-03-28T23:18:26.005Z,-4.20
2023-03-28T23:21:33.267Z,-4.26
2023-03-28T23:24:39.031Z,-4.20
2023-03-28T23:27:46.931Z,-4.13
2023-03-28T23:30:52.867Z,-4.09
2023-03-28T23:34:02.375Z,-4.08
2023-03-28T23:37:10.563Z,-4.14
2023-03-28T23:40:17.580Z,-4.14
2023-03-28T23:43:24.882Z,-4.15
2023-03-28T23:46:31.586Z,-4.15
2023-03-28T23:49:41.201Z,-4.16
2023-03-28T23:52:47.827Z,-4.20
2023-03-28T23:55:53.936Z,-4.23
2023-03-28T23:59:00.820Z,-4.14
